Arnold Line, Mississippi
Current Conditions -  °F | °C
As of 6:53 PM on Monday 20 Oct 2014 (Local Time) from KHBG Reporting Station
Clear Clear  
Wind Chill: 63°   Ceiling: Unl
Heat Index: 63°   Visibility: 10mi
Dew Point: 55°   Wind: 0mph
Humidity: 75%   Direction: NA
Pressure: 30.02"   Gusts: NA
Location:  31.1996°N, 89.2694°W
Report Text: KHBG 202353Z AUTO 00000KT 10SM CLR 17/13 A3002 RMK AO2 SLP165 T01720128 10250 20172 53003
Loading
Personal Weather Stations






























Interactive Weather Map
Tropical Storm Tracking
New forecast layout! Learn more

10-Day Weather Forecast

Advertisements
Track Severe Weather on mobile